sensor_id;sensor_type;location;lat;lon;timestamp;pressure;altitude;pressure_sealevel;temperature;humidity
66681;BME280;53575;51.366;12.350;2023-09-30T00:02:06;100873.13;;;16.79;93.83
66681;BME280;53575;51.366;12.350;2023-09-30T00:04:31;100880.19;;;16.77;94.63
66681;BME280;53575;51.366;12.350;2023-09-30T00:06:57;100879.38;;;16.75;97.55
66681;BME280;53575;51.366;12.350;2023-09-30T00:09:22;100882.16;;;16.68;98.59
66681;BME280;53575;51.366;12.350;2023-09-30T00:11:48;100900.72;;;16.63;98.96
66681;BME280;53575;51.366;12.350;2023-09-30T00:14:13;100895.53;;;16.58;98.86
66681;BME280;53575;51.366;12.350;2023-09-30T00:16:39;100900.97;;;16.52;97.53
66681;BME280;53575;51.366;12.350;2023-09-30T00:19:05;100917.75;;;16.48;97.49
66681;BME280;53575;51.366;12.350;2023-09-30T00:21:30;100907.28;;;16.44;97.23
66681;BME280;53575;51.366;12.350;2023-09-30T00:23:55;100918.84;;;16.37;97.51
66681;BME280;53575;51.366;12.350;2023-09-30T00:26:21;100925.19;;;16.29;97.94
66681;BME280;53575;51.366;12.350;2023-09-30T00:28:47;100912.97;;;16.24;97.89
66681;BME280;53575;51.366;12.350;2023-09-30T00:31:12;100924.44;;;16.23;96.27
66681;BME280;53575;51.366;12.350;2023-09-30T00:33:38;100924.53;;;16.18;96.08
66681;BME280;53575;51.366;12.350;2023-09-30T00:36:10;100932.53;;;16.12;95.88
66681;BME280;53575;51.366;12.350;2023-09-30T00:38:37;100938.72;;;16.09;96.39
66681;BME280;53575;51.366;12.350;2023-09-30T00:41:03;100933.56;;;16.05;96.42
66681;BME280;53575;51.366;12.350;2023-09-30T00:43:28;100937.16;;;16.01;96.56
66681;BME280;53575;51.366;12.350;2023-09-30T00:46:10;100945.09;;;15.98;96.22
66681;BME280;53575;51.366;12.350;2023-09-30T00:48:38;100943.41;;;15.95;96.05
66681;BME280;53575;51.366;12.350;2023-09-30T00:51:04;100939.91;;;15.93;95.94
66681;BME280;53575;51.366;12.350;2023-09-30T00:53:30;100932.09;;;15.87;95.80
66681;BME280;53575;51.366;12.350;2023-09-30T00:55:56;100940.06;;;15.86;95.84
66681;BME280;53575;51.366;12.350;2023-09-30T00:58:25;100926.94;;;15.82;96.28
66681;BME280;53575;51.366;12.350;2023-09-30T01:00:54;100932.25;;;15.79;96.74
66681;BME280;53575;51.366;12.350;2023-09-30T01:03:22;100933.19;;;15.75;97.13
66681;BME280;53575;51.366;12.350;2023-09-30T01:05:47;100941.25;;;15.68;97.40
66681;BME280;53575;51.366;12.350;2023-09-30T01:08:15;100942.19;;;15.60;97.82
66681;BME280;53575;51.366;12.350;2023-09-30T01:10:41;100944.00;;;15.58;98.26
66681;BME280;53575;51.366;12.350;2023-09-30T01:13:07;100960.75;;;15.54;99.06
66681;BME280;53575;51.366;12.350;2023-09-30T01:15:32;100960.84;;;15.50;99.81
66681;BME280;53575;51.366;12.350;2023-09-30T01:17:58;100971.44;;;15.45;100.00
66681;BME280;53575;51.366;12.350;2023-09-30T01:20:23;100969.78;;;15.40;100.00
66681;BME280;53575;51.366;12.350;2023-09-30T01:22:49;100982.97;;;15.38;100.00
66681;BME280;53575;51.366;12.350;2023-09-30T01:25:14;100968.16;;;15.31;100.00
66681;BME280;53575;51.366;12.350;2023-09-30T01:27:40;100978.69;;;15.29;100.00
66681;BME280;53575;51.366;12.350;2023-09-30T01:30:06;100984.03;;;15.25;100.00
66681;BME280;53575;51.366;12.350;2023-09-30T01:32:36;100986.66;;;15.25;100.00
66681;BME280;53575;51.366;12.350;2023-09-30T01:35:01;100988.47;;;15.21;100.00
66681;BME280;53575;51.366;12.350;2023-09-30T01:37:27;100992.88;;;15.21;100.00
66681;BME280;53575;51.366;12.350;2023-09-30T01:39:53;100995.47;;;15.22;100.00
66681;BME280;53575;51.366;12.350;2023-09-30T01:42:20;100993.81;;;15.17;100.00
66681;BME280;53575;51.366;12.350;2023-09-30T01:44:45;101000.91;;;15.10;100.00
66681;BME280;53575;51.366;12.350;2023-09-30T01:47:11;101009.75;;;15.06;100.00
66681;BME280;53575;51.366;12.350;2023-09-30T01:49:37;101019.47;;;14.99;100.00
66681;BME280;53575;51.366;12.350;2023-09-30T01:52:02;101017.00;;;14.87;100.00
66681;BME280;53575;51.366;12.350;2023-09-30T01:54:28;101017.97;;;14.81;100.00
66681;BME280;53575;51.366;12.350;2023-09-30T01:56:53;101022.41;;;14.76;100.00
66681;BME280;53575;51.366;12.350;2023-09-30T01:59:19;101024.22;;;14.71;100.00
66681;BME280;53575;51.366;12.350;2023-09-30T02:01:44;101031.28;;;14.68;100.00
66681;BME280;53575;51.366;12.350;2023-09-30T02:04:11;101019.13;;;14.59;100.00
66681;BME280;53575;51.366;12.350;2023-09-30T02:06:43;101027.09;;;14.51;100.00
66681;BME280;53575;51.366;12.350;2023-09-30T02:09:09;101022.72;;;14.46;100.00
66681;BME280;53575;51.366;12.350;2023-09-30T02:11:37;101024.53;;;14.41;100.00
66681;BME280;53575;51.366;12.350;2023-09-30T02:14:03;101028.94;;;14.37;100.00
66681;BME280;53575;51.366;12.350;2023-09-30T02:16:28;101030.75;;;14.32;100.00
66681;BME280;53575;51.366;12.350;2023-09-30T02:18:54;101030.78;;;14.29;100.00
66681;BME280;53575;51.366;12.350;2023-09-30T02:21:19;101038.72;;;14.24;100.00
66681;BME280;53575;51.366;12.350;2023-09-30T02:23:47;101056.28;;;14.21;100.00
66681;BME280;53575;51.366;12.350;2023-09-30T02:26:16;101055.41;;;14.20;100.00
66681;BME280;53575;51.366;12.350;2023-09-30T02:28:43;101057.13;;;14.24;100.00
66681;BME280;53575;51.366;12.350;2023-09-30T02:31:09;101058.81;;;14.30;100.00
66681;BME280;53575;51.366;12.350;2023-09-30T02:33:34;101060.53;;;14.35;100.00
66681;BME280;53575;51.366;12.350;2023-09-30T02:36:06;101057.91;;;14.34;100.00
66681;BME280;53575;51.366;12.350;2023-09-30T02:38:32;101053.50;;;14.34;100.00
66681;BME280;53575;51.366;12.350;2023-09-30T02:40:57;101051.81;;;14.32;100.00
66681;BME280;53575;51.366;12.350;2023-09-30T02:43:23;101058.84;;;14.27;100.00
66681;BME280;53575;51.366;12.350;2023-09-30T02:45:48;101074.72;;;14.18;100.00
66681;BME280;53575;51.366;12.350;2023-09-30T02:48:13;101074.72;;;14.16;100.00
66681;BME280;53575;51.366;12.350;2023-09-30T02:50:42;101082.63;;;14.11;100.00
66681;BME280;53575;51.366;12.350;2023-09-30T02:53:10;101088.81;;;14.06;100.00
66681;BME280;53575;51.366;12.350;2023-09-30T02:55:35;101089.75;;;14.02;100.00
66681;BME280;53575;51.366;12.350;2023-09-30T02:58:01;101095.06;;;13.94;100.00
66681;BME280;53575;51.366;12.350;2023-09-30T03:00:27;101095.09;;;13.89;100.00
66681;BME280;53575;51.366;12.350;2023-09-30T03:02:53;101102.16;;;13.81;100.00
66681;BME280;53575;51.366;12.350;2023-09-30T03:05:19;101100.41;;;13.77;100.00
66681;BME280;53575;51.366;12.350;2023-09-30T03:07:45;101117.94;;;13.75;100.00
66681;BME280;53575;51.366;12.350;2023-09-30T03:10:11;101117.13;;;13.70;100.00
66681;BME280;53575;51.366;12.350;2023-09-30T03:12:39;101123.25;;;13.64;100.00
66681;BME280;53575;51.366;12.350;2023-09-30T03:15:05;101127.66;;;13.64;100.00
66681;BME280;53575;51.366;12.350;2023-09-30T03:17:31;101127.66;;;13.62;100.00
66681;BME280;53575;51.366;12.350;2023-09-30T03:19:58;101124.13;;;13.62;100.00
66681;BME280;53575;51.366;12.350;2023-09-30T03:22:25;101122.41;;;13.58;100.00
66681;BME280;53575;51.366;12.350;2023-09-30T03:24:52;101118.94;;;13.56;100.00
66681;BME280;53575;51.366;12.350;2023-09-30T03:27:19;101125.09;;;13.50;100.00
66681;BME280;53575;51.366;12.350;2023-09-30T03:29:45;101126.88;;;13.45;100.00
66681;BME280;53575;51.366;12.350;2023-09-30T03:32:11;101119.00;;;13.45;100.00
66681;BME280;53575;51.366;12.350;2023-09-30T03:34:36;101114.63;;;13.41;100.00
66681;BME280;53575;51.366;12.350;2023-09-30T03:37:02;101114.66;;;13.36;100.00
66681;BME280;53575;51.366;12.350;2023-09-30T03:39:28;101115.59;;;13.25;100.00
66681;BME280;53575;51.366;12.350;2023-09-30T03:41:57;101119.97;;;13.21;100.00
66681;BME280;53575;51.366;12.350;2023-09-30T03:44:24;101118.22;;;13.18;100.00
66681;BME280;53575;51.366;12.350;2023-09-30T03:46:51;101121.75;;;13.10;100.00
66681;BME280;53575;51.366;12.350;2023-09-30T03:49:17;101123.50;;;13.03;100.00
66681;BME280;53575;51.366;12.350;2023-09-30T03:51:45;101125.28;;;13.01;100.00
66681;BME280;53575;51.366;12.350;2023-09-30T03:54:10;101127.03;;;12.98;100.00
66681;BME280;53575;51.366;12.350;2023-09-30T03:56:36;101128.75;;;12.97;100.00
66681;BME280;53575;51.366;12.350;2023-09-30T03:59:04;101129.63;;;13.01;100.00
66681;BME280;53575;51.366;12.350;2023-09-30T04:01:29;101131.41;;;12.99;100.00
66681;BME280;53575;51.366;12.350;2023-09-30T04:03:56;101140.13;;;12.99;100.00
66681;BME280;53575;51.366;12.350;2023-09-30T04:06:22;101150.66;;;12.91;100.00
66681;BME280;53575;51.366;12.350;2023-09-30T04:08:47;101162.91;;;12.86;100.00
66681;BME280;53575;51.366;12.350;2023-09-30T04:11:13;101157.66;;;12.82;100.00
66681;BME280;53575;51.366;12.350;2023-09-30T04:13:44;101144.56;;;12.80;100.00
66681;BME280;53575;51.366;12.350;2023-09-30T04:16:10;101152.44;;;12.79;100.00
66681;BME280;53575;51.366;12.350;2023-09-30T04:18:35;101165.53;;;12.77;100.00
66681;BME280;53575;51.366;12.350;2023-09-30T04:21:01;101154.19;;;12.80;100.00
66681;BME280;53575;51.366;12.350;2023-09-30T04:23:27;101144.56;;;12.79;100.00
66681;BME280;53575;51.366;12.350;2023-09-30T04:25:52;101144.56;;;12.76;100.00
66681;BME280;53575;51.366;12.350;2023-09-30T04:28:18;101148.94;;;12.75;100.00
66681;BME280;53575;51.366;12.350;2023-09-30T04:30:47;101155.03;;;12.74;100.00
66681;BME280;53575;51.366;12.350;2023-09-30T04:33:14;101162.06;;;12.75;100.00
66681;BME280;53575;51.366;12.350;2023-09-30T04:35:40;101155.94;;;12.72;100.00
66681;BME280;53575;51.366;12.350;2023-09-30T04:38:06;101154.19;;;12.69;100.00
66681;BME280;53575;51.366;12.350;2023-09-30T04:40:31;101153.31;;;12.68;100.00
66681;BME280;53575;51.366;12.350;2023-09-30T04:42:58;101156.81;;;12.66;100.00
66681;BME280;53575;51.366;12.350;2023-09-30T04:45:26;101160.31;;;12.68;100.00
66681;BME280;53575;51.366;12.350;2023-09-30T04:47:53;101164.69;;;12.71;100.00
66681;BME280;53575;51.366;12.350;2023-09-30T04:50:19;101162.06;;;12.69;100.00
66681;BME280;53575;51.366;12.350;2023-09-30T04:52:47;101158.56;;;12.68;100.00
66681;BME280;53575;51.366;12.350;2023-09-30T04:55:13;101154.19;;;12.69;100.00
66681;BME280;53575;51.366;12.350;2023-09-30T04:57:41;101153.31;;;12.65;100.00
66681;BME280;53575;51.366;12.350;2023-09-30T05:00:10;101154.19;;;12.61;100.00
66681;BME280;53575;51.366;12.350;2023-09-30T05:02:36;101155.97;;;12.59;100.00
66681;BME280;53575;51.366;12.350;2023-09-30T05:05:02;101165.56;;;12.60;100.00
66681;BME280;53575;51.366;12.350;2023-09-30T05:07:30;101167.31;;;12.58;100.00
66681;BME280;53575;51.366;12.350;2023-09-30T05:09:56;101163.84;;;12.52;100.00
66681;BME280;53575;51.366;12.350;2023-09-30T05:12:21;101171.69;;;12.49;100.00
66681;BME280;53575;51.366;12.350;2023-09-30T05:14:47;101171.69;;;12.53;100.00
66681;BME280;53575;51.366;12.350;2023-09-30T05:17:13;101183.03;;;12.54;100.00
66681;BME280;53575;51.366;12.350;2023-09-30T05:19:38;101184.81;;;12.52;100.00
66681;BME280;53575;51.366;12.350;2023-09-30T05:22:04;101198.78;;;12.51;100.00
66681;BME280;53575;51.366;12.350;2023-09-30T05:24:30;101203.16;;;12.53;100.00
66681;BME280;53575;51.366;12.350;2023-09-30T05:26:56;101200.53;;;12.53;100.00
66681;BME280;53575;51.366;12.350;2023-09-30T05:29:22;101211.88;;;12.55;100.00
66681;BME280;53575;51.366;12.350;2023-09-30T05:31:48;101206.63;;;12.54;100.00
66681;BME280;53575;51.366;12.350;2023-09-30T05:34:13;101202.28;;;12.57;100.00
66681;BME280;53575;51.366;12.350;2023-09-30T05:36:38;101214.53;;;12.60;100.00
66681;BME280;53575;51.366;12.350;2023-09-30T05:39:04;101223.25;;;12.54;100.00
66681;BME280;53575;51.366;12.350;2023-09-30T05:41:31;101220.63;;;12.53;100.00
66681;BME280;53575;51.366;12.350;2023-09-30T05:43:56;101225.84;;;12.51;100.00
66681;BME280;53575;51.366;12.350;2023-09-30T05:46:22;101225.00;;;12.51;100.00
66681;BME280;53575;51.366;12.350;2023-09-30T05:48:48;101218.88;;;12.42;100.00
66681;BME280;53575;51.366;12.350;2023-09-30T05:51:13;101218.88;;;12.38;100.00
66681;BME280;53575;51.366;12.350;2023-09-30T05:53:41;101239.81;;;12.39;100.00
66681;BME280;53575;51.366;12.350;2023-09-30T05:56:07;101253.84;;;12.37;100.00
66681;BME280;53575;51.366;12.350;2023-09-30T05:58:33;101258.19;;;12.33;100.00
66681;BME280;53575;51.366;12.350;2023-09-30T06:00:58;101263.44;;;12.29;100.00
66681;BME280;53575;51.366;12.350;2023-09-30T06:03:25;101255.56;;;12.29;100.00
66681;BME280;53575;51.366;12.350;2023-09-30T06:05:54;101249.47;;;12.33;100.00
66681;BME280;53575;51.366;12.350;2023-09-30T06:08:22;101250.34;;;12.36;100.00
66681;BME280;53575;51.366;12.350;2023-09-30T06:10:47;101256.44;;;12.38;100.00
66681;BME280;53575;51.366;12.350;2023-09-30T06:13:13;101259.94;;;12.40;100.00
66681;BME280;53575;51.366;12.350;2023-09-30T06:15:40;101245.09;;;12.44;100.00
66681;BME280;53575;51.366;12.350;2023-09-30T06:18:06;101243.34;;;12.49;100.00
66681;BME280;53575;51.366;12.350;2023-09-30T06:20:32;101255.59;;;12.53;100.00
66681;BME280;53575;51.366;12.350;2023-09-30T06:22:58;101253.84;;;12.57;100.00
66681;BME280;53575;51.366;12.350;2023-09-30T06:25:26;101258.22;;;12.65;100.00
66681;BME280;53575;51.366;12.350;2023-09-30T06:27:53;101265.22;;;12.73;100.00
66681;BME280;53575;51.366;12.350;2023-09-30T06:30:19;101267.84;;;12.79;100.00
66681;BME280;53575;51.366;12.350;2023-09-30T06:32:46;101268.72;;;12.84;100.00
66681;BME280;53575;51.366;12.350;2023-09-30T06:35:12;101269.59;;;12.86;100.00
66681;BME280;53575;51.366;12.350;2023-09-30T06:37:39;101259.97;;;12.91;100.00
66681;BME280;53575;51.366;12.350;2023-09-30T06:40:09;101259.09;;;13.01;100.00
66681;BME280;53575;51.366;12.350;2023-09-30T06:42:36;101254.69;;;13.12;100.00
66681;BME280;53575;51.366;12.350;2023-09-30T06:45:03;101254.69;;;13.22;100.00
66681;BME280;53575;51.366;12.350;2023-09-30T06:47:34;101262.56;;;13.23;100.00
66681;BME280;53575;51.366;12.350;2023-09-30T06:50:07;101266.03;;;13.19;100.00
66681;BME280;53575;51.366;12.350;2023-09-30T06:52:37;101270.41;;;13.12;100.00
66681;BME280;53575;51.366;12.350;2023-09-30T06:55:03;101275.69;;;13.06;100.00
66681;BME280;53575;51.366;12.350;2023-09-30T06:57:32;101277.44;;;13.07;100.00
66681;BME280;53575;51.366;12.350;2023-09-30T06:59:57;101271.31;;;13.13;100.00
66681;BME280;53575;51.366;12.350;2023-09-30T07:02:23;101279.19;;;13.21;100.00
66681;BME280;53575;51.366;12.350;2023-09-30T07:04:49;101289.72;;;13.28;100.00
66681;BME280;53575;51.366;12.350;2023-09-30T07:07:14;101284.41;;;13.39;100.00
66681;BME280;53575;51.366;12.350;2023-09-30T07:09:43;101266.88;;;13.53;100.00
66681;BME280;53575;51.366;12.350;2023-09-30T07:12:09;101272.09;;;13.58;100.00
66681;BME280;53575;51.366;12.350;2023-09-30T07:14:34;101272.13;;;13.59;100.00
66681;BME280;53575;51.366;12.350;2023-09-30T07:17:00;101279.13;;;13.59;100.00
66681;BME280;53575;51.366;12.350;2023-09-30T07:19:25;101277.38;;;13.59;100.00
66681;BME280;53575;51.366;12.350;2023-09-30T07:21:51;101278.25;;;13.63;100.00
66681;BME280;53575;51.366;12.350;2023-09-30T07:24:16;101277.34;;;13.65;100.00
66681;BME280;53575;51.366;12.350;2023-09-30T07:26:41;101288.72;;;13.64;100.00
66681;BME280;53575;51.366;12.350;2023-09-30T07:29:09;101295.72;;;13.69;100.00
66681;BME280;53575;51.366;12.350;2023-09-30T07:31:37;101301.88;;;13.66;100.00
66681;BME280;53575;51.366;12.350;2023-09-30T07:34:03;101303.63;;;13.64;100.00
66681;BME280;53575;51.366;12.350;2023-09-30T07:36:28;101313.25;;;13.67;100.00
66681;BME280;53575;51.366;12.350;2023-09-30T07:38:54;101314.13;;;13.70;100.00
66681;BME280;53575;51.366;12.350;2023-09-30T07:41:19;101317.59;;;13.75;100.00
66681;BME280;53575;51.366;12.350;2023-09-30T07:43:45;101309.66;;;13.84;100.00
66681;BME280;53575;51.366;12.350;2023-09-30T07:46:10;101314.91;;;13.97;100.00
66681;BME280;53575;51.366;12.350;2023-09-30T07:48:36;101315.72;;;14.06;100.00
66681;BME280;53575;51.366;12.350;2023-09-30T07:51:01;101314.81;;;14.13;100.00
66681;BME280;53575;51.366;12.350;2023-09-30T07:53:27;101322.66;;;14.21;100.00
66681;BME280;53575;51.366;12.350;2023-09-30T07:55:53;101327.00;;;14.28;100.00
66681;BME280;53575;51.366;12.350;2023-09-30T07:58:19;101330.50;;;14.32;100.00
66681;BME280;53575;51.366;12.350;2023-09-30T08:00:45;101323.47;;;14.34;100.00
66681;BME280;53575;51.366;12.350;2023-09-30T08:03:11;101316.47;;;14.33;100.00
66681;BME280;53575;51.366;12.350;2023-09-30T08:05:37;101323.47;;;14.34;100.00
66681;BME280;53575;51.366;12.350;2023-09-30T08:08:03;101332.22;;;14.36;100.00
66681;BME280;53575;51.366;12.350;2023-09-30T08:10:29;101340.97;;;14.38;100.00
66681;BME280;53575;51.366;12.350;2023-09-30T08:12:57;101347.97;;;14.41;100.00
66681;BME280;53575;51.366;12.350;2023-09-30T08:15:24;101340.97;;;14.41;100.00
66681;BME280;53575;51.366;12.350;2023-09-30T08:17:50;101340.97;;;14.41;100.00
66681;BME280;53575;51.366;12.350;2023-09-30T08:20:16;101340.97;;;14.39;100.00
66681;BME280;53575;51.366;12.350;2023-09-30T08:22:41;101343.59;;;14.38;100.00
66681;BME280;53575;51.366;12.350;2023-09-30T08:25:07;101337.47;;;14.39;100.00
66681;BME280;53575;51.366;12.350;2023-09-30T08:27:33;101334.81;;;14.41;100.00
66681;BME280;53575;51.366;12.350;2023-09-30T08:29:59;101341.84;;;14.43;100.00
66681;BME280;53575;51.366;12.350;2023-09-30T08:32:25;101338.31;;;14.47;100.00
66681;BME280;53575;51.366;12.350;2023-09-30T08:34:50;101330.41;;;14.55;100.00
66681;BME280;53575;51.366;12.350;2023-09-30T08:37:16;101326.00;;;14.58;100.00
66681;BME280;53575;51.366;12.350;2023-09-30T08:39:42;101338.25;;;14.62;100.00
66681;BME280;53575;51.366;12.350;2023-09-30T08:42:10;101341.72;;;14.69;100.00
66681;BME280;53575;51.366;12.350;2023-09-30T08:44:37;101339.91;;;14.74;100.00
66681;BME280;53575;51.366;12.350;2023-09-30T08:47:05;101340.72;;;14.84;100.00
66681;BME280;53575;51.366;12.350;2023-09-30T08:49:34;101351.19;;;14.93;100.00
66681;BME280;53575;51.366;12.350;2023-09-30T08:52:03;101343.22;;;15.02;99.73
66681;BME280;53575;51.366;12.350;2023-09-30T08:54:30;101348.41;;;15.11;99.46
66681;BME280;53575;51.366;12.350;2023-09-30T08:56:57;101347.47;;;15.17;99.03
66681;BME280;53575;51.366;12.350;2023-09-30T08:59:24;101346.50;;;15.29;98.33
66681;BME280;53575;51.366;12.350;2023-09-30T09:01:51;101351.72;;;15.33;97.06
66681;BME280;53575;51.366;12.350;2023-09-30T09:04:17;101349.88;;;15.43;97.05
66681;BME280;53575;51.366;12.350;2023-09-30T09:06:43;101344.47;;;15.58;96.69
66681;BME280;53575;51.366;12.350;2023-09-30T09:09:16;101346.09;;;15.72;95.27
66681;BME280;53575;51.366;12.350;2023-09-30T09:11:43;101338.88;;;15.89;94.94
66681;BME280;53575;51.366;12.350;2023-09-30T09:14:08;101340.53;;;15.98;93.81
66681;BME280;53575;51.366;12.350;2023-09-30T09:16:34;101344.88;;;16.02;93.39
66681;BME280;53575;51.366;12.350;2023-09-30T09:19:12;101352.69;;;16.09;92.74
66681;BME280;53575;51.366;12.350;2023-09-30T09:21:38;101349.19;;;16.09;92.48
66681;BME280;53575;51.366;12.350;2023-09-30T09:24:04;101349.22;;;16.07;89.43
66681;BME280;53575;51.366;12.350;2023-09-30T09:26:30;101346.63;;;16.01;90.10
66681;BME280;53575;51.366;12.350;2023-09-30T09:28:58;101346.59;;;16.04;89.62
66681;BME280;53575;51.366;12.350;2023-09-30T09:31:28;101346.47;;;16.14;88.34
66681;BME280;53575;51.366;12.350;2023-09-30T09:33:54;101347.38;;;16.13;88.04
66681;BME280;53575;51.366;12.350;2023-09-30T09:36:20;101343.84;;;16.14;88.92
66681;BME280;53575;51.366;12.350;2023-09-30T09:38:50;101349.03;;;16.23;88.72
66681;BME280;53575;51.366;12.350;2023-09-30T09:41:19;101343.72;;;16.24;88.34
66681;BME280;53575;51.366;12.350;2023-09-30T09:43:48;101341.84;;;16.34;88.16
66681;BME280;53575;51.366;12.350;2023-09-30T09:46:16;101347.94;;;16.36;85.79
66681;BME280;53575;51.366;12.350;2023-09-30T09:48:45;101340.91;;;16.38;86.15
66681;BME280;53575;51.366;12.350;2023-09-30T09:51:11;101349.63;;;16.45;86.28
66681;BME280;53575;51.366;12.350;2023-09-30T09:53:39;101348.53;;;16.58;85.68
66681;BME280;53575;51.366;12.350;2023-09-30T09:56:08;101339.63;;;16.65;85.47
66681;BME280;53575;51.366;12.350;2023-09-30T09:58:35;101346.34;;;16.89;83.81
66681;BME280;53575;51.366;12.350;2023-09-30T10:01:05;101343.13;;;17.23;82.50
66681;BME280;53575;51.366;12.350;2023-09-30T10:03:31;101341.81;;;17.48;80.54
66681;BME280;53575;51.366;12.350;2023-09-30T10:05:58;101341.69;;;17.56;77.01
66681;BME280;53575;51.366;12.350;2023-09-30T10:08:32;101348.59;;;17.62;77.88
66681;BME280;53575;51.366;12.350;2023-09-30T10:10:59;101350.44;;;17.60;79.38
66681;BME280;53575;51.366;12.350;2023-09-30T10:13:56;101351.38;;;17.54;77.25
66681;BME280;53575;51.366;12.350;2023-09-30T10:21:38;101351.66;;;17.88;74.51
66681;BME280;53575;51.366;12.350;2023-09-30T10:30:14;101363.19;;;17.36;76.65
66681;BME280;53575;51.366;12.350;2023-09-30T10:40:48;101356.81;;;16.95;79.75
66681;BME280;53575;51.366;12.350;2023-09-30T10:43:29;101348.63;;;17.11;79.42
66681;BME280;53575;51.366;12.350;2023-09-30T10:45:56;101347.44;;;17.30;78.87
66681;BME280;53575;51.366;12.350;2023-09-30T10:50:51;101347.38;;;17.33;74.38
66681;BME280;53575;51.366;12.350;2023-09-30T10:53:17;101358.09;;;17.24;73.96
66681;BME280;53575;51.366;12.350;2023-09-30T10:55:45;101352.56;;;17.38;74.19
66681;BME280;53575;51.366;12.350;2023-09-30T10:58:15;101343.59;;;17.46;74.44
66681;BME280;53575;51.366;12.350;2023-09-30T11:00:54;101346.00;;;17.60;73.52
66681;BME280;53575;51.366;12.350;2023-09-30T11:03:21;101342.13;;;17.80;72.05
66681;BME280;53575;51.366;12.350;2023-09-30T11:05:48;101333.16;;;17.88;70.24
66681;BME280;53575;51.366;12.350;2023-09-30T11:08:15;101335.78;;;17.90;71.30
66681;BME280;53575;51.366;12.350;2023-09-30T11:10:49;101329.41;;;17.98;70.07
66681;BME280;53575;51.366;12.350;2023-09-30T11:13:16;101326.84;;;17.95;71.15
66681;BME280;53575;51.366;12.350;2023-09-30T11:15:41;101326.56;;;18.08;69.41
66681;BME280;53575;51.366;12.350;2023-09-30T11:18:17;101330.56;;;18.27;68.69
66681;BME280;53575;51.366;12.350;2023-09-30T11:20:43;101331.75;;;18.14;63.29
66681;BME280;53575;51.366;12.350;2023-09-30T11:23:10;101319.44;;;18.11;64.59
66681;BME280;53575;51.366;12.350;2023-09-30T11:25:37;101319.06;;;18.30;64.29
66681;BME280;53575;51.366;12.350;2023-09-30T11:28:17;101307.22;;;18.46;61.10
66681;BME280;53575;51.366;12.350;2023-09-30T11:30:57;101307.09;;;18.52;61.96
66681;BME280;53575;51.366;12.350;2023-09-30T11:33:22;101310.72;;;18.48;61.47
66681;BME280;53575;51.366;12.350;2023-09-30T11:38:28;101306.41;;;18.42;62.10
66681;BME280;53575;51.366;12.350;2023-09-30T11:41:01;101300.00;;;18.52;61.92
66681;BME280;53575;51.366;12.350;2023-09-30T11:43:29;101301.41;;;18.70;61.28
66681;BME280;53575;51.366;12.350;2023-09-30T11:46:08;101301.03;;;18.86;61.64
66681;BME280;53575;51.366;12.350;2023-09-30T11:48:34;101302.38;;;19.02;61.29
66681;BME280;53575;51.366;12.350;2023-09-30T11:51:00;101316.81;;;19.24;60.57
66681;BME280;53575;51.366;12.350;2023-09-30T11:53:29;101308.78;;;19.28;59.10
66681;BME280;53575;51.366;12.350;2023-09-30T11:55:56;101301.81;;;19.23;58.28
66681;BME280;53575;51.366;12.350;2023-09-30T11:58:25;101300.69;;;19.32;58.34
66681;BME280;53575;51.366;12.350;2023-09-30T12:00:53;101298.38;;;19.53;57.87
66681;BME280;53575;51.366;12.350;2023-09-30T12:03:19;101297.56;;;19.51;58.74
66681;BME280;53575;51.366;12.350;2023-09-30T12:05:45;101285.88;;;19.58;58.33
66681;BME280;53575;51.366;12.350;2023-09-30T12:08:11;101290.22;;;19.62;56.98
66681;BME280;53575;51.366;12.350;2023-09-30T12:10:36;101284.78;;;19.66;56.35
66681;BME280;53575;51.366;12.350;2023-09-30T12:13:02;101280.00;;;19.46;57.46
66681;BME280;53575;51.366;12.350;2023-09-30T12:15:28;101279.13;;;19.46;57.13
66681;BME280;53575;51.366;12.350;2023-09-30T12:17:54;101277.88;;;19.59;57.03
66681;BME280;53575;51.366;12.350;2023-09-30T12:20:19;101280.75;;;19.83;56.31
66681;BME280;53575;51.366;12.350;2023-09-30T12:22:45;101272.09;;;20.07;54.60
66681;BME280;53575;51.366;12.350;2023-09-30T12:25:11;101273.97;;;20.32;54.27
66681;BME280;53575;51.366;12.350;2023-09-30T12:27:36;101275.75;;;20.61;53.09
66681;BME280;53575;51.366;12.350;2023-09-30T12:30:05;101269.00;;;20.77;52.55
66681;BME280;53575;51.366;12.350;2023-09-30T12:32:31;101282.28;;;20.77;52.85
66681;BME280;53575;51.366;12.350;2023-09-30T12:34:57;101276.63;;;20.61;52.22
66681;BME280;53575;51.366;12.350;2023-09-30T12:37:22;101270.25;;;20.37;52.58
66681;BME280;53575;51.366;12.350;2023-09-30T12:39:48;101269.53;;;20.32;52.76
66681;BME280;53575;51.366;12.350;2023-09-30T12:42:13;101261.34;;;20.40;53.82
66681;BME280;53575;51.366;12.350;2023-09-30T12:44:41;101253.94;;;20.51;52.89
66681;BME280;53575;51.366;12.350;2023-09-30T12:47:06;101253.19;;;20.46;53.80
66681;BME280;53575;51.366;12.350;2023-09-30T12:49:31;101252.13;;;20.52;53.50
66681;BME280;53575;51.366;12.350;2023-09-30T12:51:57;101251.72;;;20.64;52.67
66681;BME280;53575;51.366;12.350;2023-09-30T12:54:24;101244.53;;;20.67;52.22
66681;BME280;53575;51.366;12.350;2023-09-30T12:56:50;101254.38;;;20.64;51.67